EFIV

Ivalo Airport

Ivalo, Finland
METAR EFIV 211950Z 21002KT 9999 -SN FEW026 M23/M25 Q1017
Observed Flight Rules
Jan-21 @ 19:50 UTC (37 minutes ago) Visual Flight Rules
Wind Visibility Clouds Conditions
210° at 2 knots 10,000+ meters
  • Few at 2,600' AGL
  • Light Snow
Temperatures Readings
Current -23°C / -9°F
Dewpoint -25°C / -13°F
Humidity 84%
Altimeter 30.03" Hg
Pressure 1017 hPa
Elevation 148
METAR EFIV 211950Z 21002KT 9999 -SN FEW026 M23/M25 Q1017
Observed Flight Rules
Jan-21 @ 19:50 UTC
(37 minutes ago)
VFR
Wind Visibility
210° at 2 knots 10,000+ meters
Clouds
  • Few at 2,600' AGL
Conditions
  • Light Snow
Temperature Dewpoint
-23°C / -9°F -25°C / -13°F
Humidity Altimeter Pressure
84% 30.03" Hg 1017 hPa